createdAt,value
2019-05-01T00:01:34.295Z,50.90
2019-05-01T00:04:07.361Z,50.83
2019-05-01T00:06:50.290Z,50.70
2019-05-01T00:09:23.204Z,50.71
2019-05-01T00:11:56.240Z,51.06
2019-05-01T00:14:30.610Z,51.08
2019-05-01T00:17:03.292Z,50.86
2019-05-01T00:19:36.155Z,50.76
2019-05-01T00:22:09.088Z,50.76
2019-05-01T00:24:41.690Z,50.85
2019-05-01T00:27:14.504Z,51.12
2019-05-01T00:29:47.510Z,51.25
2019-05-01T00:32:20.210Z,51.41
2019-05-01T00:34:53.098Z,51.53
2019-05-01T00:37:25.881Z,51.91
2019-05-01T00:39:58.730Z,51.41
2019-05-01T00:42:31.195Z,51.49
2019-05-01T00:45:04.245Z,51.99
2019-05-01T00:47:37.950Z,52.55
2019-05-01T00:50:10.797Z,52.59
2019-05-01T00:52:43.542Z,53.04
2019-05-01T00:55:35.643Z,53.57
2019-05-01T00:58:13.085Z,53.83
2019-05-01T01:00:45.535Z,54.03
2019-05-01T01:03:18.235Z,53.69
2019-05-01T01:05:51.105Z,54.16
2019-05-01T01:08:23.790Z,54.28
2019-05-01T01:10:56.710Z,54.13
2019-05-01T01:13:29.510Z,54.03
2019-05-01T01:16:02.415Z,54.04
2019-05-01T01:18:35.120Z,54.40
2019-05-01T01:21:07.780Z,54.19
2019-05-01T01:23:40.565Z,54.63
2019-05-01T01:26:13.145Z,54.63
2019-05-01T01:28:46.035Z,54.79
2019-05-01T01:31:18.970Z,55.21
2019-05-01T01:33:51.493Z,55.44
2019-05-01T01:36:24.045Z,55.34
2019-05-01T01:38:56.631Z,55.79
2019-05-01T01:41:29.525Z,55.55
2019-05-01T01:44:11.015Z,55.81
2019-05-01T01:46:48.745Z,56.16
2019-05-01T01:49:22.895Z,56.30
2019-05-01T01:51:56.190Z,56.85
2019-05-01T01:54:29.249Z,57.01
2019-05-01T01:57:02.075Z,56.96
2019-05-01T01:59:34.650Z,57.36
2019-05-01T02:02:09.085Z,57.62
2019-05-01T02:05:01.750Z,57.82
2019-05-01T02:07:35.076Z,57.56
2019-05-01T02:10:09.714Z,57.87
2019-05-01T02:12:44.015Z,57.75
2019-05-01T02:15:17.870Z,58.20
2019-05-01T02:17:50.504Z,58.20
2019-05-01T02:20:23.759Z,57.65
2019-05-01T02:22:56.560Z,57.61
2019-05-01T02:25:29.660Z,57.61
2019-05-01T02:28:20.222Z,57.34
2019-05-01T02:31:27.569Z,57.86
2019-05-01T02:33:47.298Z,57.89
2019-05-01T02:36:22.935Z,57.89
2019-05-01T02:38:57.475Z,57.99
2019-05-01T02:41:32.921Z,57.97
2019-05-01T02:44:13.019Z,58.19
2019-05-01T02:46:49.041Z,58.68
2019-05-01T02:49:52.724Z,58.62
2019-05-01T02:52:29.514Z,58.81
2019-05-01T02:55:06.892Z,58.59
2019-05-01T02:57:42.201Z,58.90
2019-05-01T03:00:15.726Z,59.00
2019-05-01T03:02:49.040Z,58.60
2019-05-01T03:05:21.407Z,58.91
2019-05-01T03:07:54.281Z,58.71
2019-05-01T03:10:27.168Z,59.01
2019-05-01T03:13:00.472Z,59.11
2019-05-01T03:15:35.920Z,59.60
2019-05-01T03:18:22.280Z,60.37
2019-05-01T03:21:05.729Z,60.33
2019-05-01T03:23:40.088Z,60.73
2019-05-01T03:26:13.092Z,60.73
2019-05-01T03:28:45.915Z,60.34
2019-05-01T03:31:19.040Z,61.02
2019-05-01T03:33:53.446Z,61.06
2019-05-01T03:36:26.701Z,61.29
2019-05-01T03:38:59.506Z,62.79
2019-05-01T03:41:32.274Z,62.52
2019-05-01T03:44:05.832Z,62.55
2019-05-01T03:46:39.317Z,62.12
2019-05-01T03:49:12.705Z,61.04
2019-05-01T03:51:45.881Z,61.69
2019-05-01T03:54:18.936Z,61.19
2019-05-01T03:56:52.315Z,61.81
2019-05-01T03:59:25.236Z,61.28
2019-05-01T04:01:57.753Z,60.52
2019-05-01T04:04:32.762Z,57.73
2019-05-01T04:07:05.836Z,54.77
2019-05-01T04:09:38.620Z,53.12
2019-05-01T04:12:11.255Z,54.39
2019-05-01T04:14:43.850Z,54.39
2019-05-01T04:17:18.790Z,52.41
2019-05-01T04:19:52.125Z,48.47
2019-05-01T04:22:25.240Z,50.58
2019-05-01T04:24:57.878Z,50.58
2019-05-01T04:27:32.576Z,51.85
2019-05-01T04:30:23.345Z,52.69
2019-05-01T04:32:58.591Z,52.81
2019-05-01T04:35:49.539Z,50.77
2019-05-01T04:38:22.301Z,50.77
2019-05-01T04:40:54.920Z,51.22
2019-05-01T04:43:27.835Z,51.93
2019-05-01T04:46:00.466Z,52.09
2019-05-01T04:48:33.960Z,51.98
2019-05-01T04:51:06.971Z,50.67
2019-05-01T04:53:40.013Z,49.53
2019-05-01T04:56:13.525Z,48.05
2019-05-01T04:58:46.825Z,47.49
2019-05-01T05:01:19.815Z,48.13
2019-05-01T05:03:52.660Z,49.43
2019-05-01T05:06:25.300Z,49.75
2019-05-01T05:08:58.955Z,50.12
2019-05-01T05:11:33.315Z,52.23
2019-05-01T05:14:13.955Z,50.92
2019-05-01T05:16:57.130Z,49.54
2019-05-01T05:19:30.172Z,48.00
2019-05-01T05:22:03.029Z,47.33
2019-05-01T05:24:36.055Z,48.38
2019-05-01T05:27:09.440Z,42.22
2019-05-01T05:29:42.815Z,42.22
2019-05-01T05:32:17.471Z,43.74
2019-05-01T05:34:51.857Z,44.05
2019-05-01T05:37:41.820Z,45.81
2019-05-01T05:40:14.400Z,45.99
2019-05-01T05:42:47.332Z,47.24
2019-05-01T05:45:19.981Z,44.89
2019-05-01T05:47:52.890Z,44.08
2019-05-01T05:50:30.215Z,44.29
2019-05-01T05:53:18.780Z,44.37
2019-05-01T05:56:00.734Z,43.36
2019-05-01T05:58:38.260Z,43.47
2019-05-01T06:01:15.530Z,42.64
2019-05-01T06:04:08.521Z,41.02
2019-05-01T06:07:01.980Z,39.79
2019-05-01T06:09:38.700Z,39.09
2019-05-01T06:12:26.545Z,38.93
2019-05-01T06:15:14.160Z,39.14
2019-05-01T06:17:51.618Z,39.00
2019-05-01T06:20:28.700Z,38.44
2019-05-01T06:23:10.832Z,38.07
2019-05-01T06:25:46.708Z,38.80
2019-05-01T06:28:24.627Z,38.90
2019-05-01T06:30:55.595Z,39.59
2019-05-01T06:33:28.439Z,39.62
2019-05-01T06:36:01.010Z,38.41
2019-05-01T06:38:36.308Z,38.47
2019-05-01T06:41:07.930Z,38.64
2019-05-01T06:43:46.905Z,37.71
2019-05-01T06:46:21.943Z,38.16
2019-05-01T06:49:07.087Z,39.58
2019-05-01T06:51:41.851Z,38.75
2019-05-01T06:54:16.478Z,38.33
2019-05-01T06:56:51.580Z,36.04
2019-05-01T06:59:31.628Z,36.71
2019-05-01T07:02:01.936Z,36.34
2019-05-01T07:04:37.758Z,36.36
2019-05-01T07:07:24.755Z,36.35
2019-05-01T07:09:49.387Z,35.29
2019-05-01T07:12:23.833Z,35.29
2019-05-01T07:14:57.235Z,34.52
2019-05-01T07:17:30.156Z,35.86
2019-05-01T07:20:21.610Z,34.59
2019-05-01T07:22:55.161Z,33.18
2019-05-01T07:25:28.039Z,33.86
2019-05-01T07:28:00.569Z,32.58
2019-05-01T07:30:41.529Z,31.82
2019-05-01T07:33:16.713Z,30.64
2019-05-01T07:35:49.540Z,30.24
2019-05-01T07:38:22.360Z,29.34
2019-05-01T07:40:58.905Z,29.86
2019-05-01T07:43:34.609Z,26.07
2019-05-01T07:46:09.590Z,27.15
2019-05-01T07:48:43.384Z,24.50
2019-05-01T07:51:16.651Z,25.35
2019-05-01T07:53:50.005Z,24.40
2019-05-01T07:56:27.803Z,25.24
2019-05-01T07:58:57.870Z,24.43
2019-05-01T08:01:35.480Z,23.98
2019-05-01T08:04:08.120Z,22.91
2019-05-01T08:06:40.984Z,24.52
2019-05-01T08:09:15.198Z,22.71
2019-05-01T08:11:48.000Z,23.69
2019-05-01T08:14:21.824Z,19.93
2019-05-01T08:16:54.676Z,22.44
2019-05-01T08:19:28.880Z,23.93
2019-05-01T08:22:06.270Z,23.62
2019-05-01T08:24:39.031Z,22.32
2019-05-01T08:27:15.754Z,21.83
2019-05-01T08:29:49.682Z,22.52
2019-05-01T08:32:33.911Z,21.94
2019-05-01T08:35:16.060Z,21.39
2019-05-01T08:37:48.877Z,21.43
2019-05-01T08:40:21.736Z,20.85
2019-05-01T08:42:54.550Z,21.03
2019-05-01T08:45:27.986Z,20.71
2019-05-01T08:48:05.319Z,20.37
2019-05-01T08:50:37.190Z,21.07
2019-05-01T08:53:09.918Z,21.05
2019-05-01T08:55:45.170Z,20.14
2019-05-01T08:58:17.131Z,20.17
2019-05-01T09:00:50.082Z,19.76
2019-05-01T09:03:23.060Z,20.31
2019-05-01T09:05:57.559Z,19.56
2019-05-01T09:08:31.998Z,18.96
2019-05-01T09:11:04.802Z,20.52
2019-05-01T09:13:37.455Z,18.32
2019-05-01T09:16:10.680Z,18.60
2019-05-01T09:18:43.780Z,18.76
2019-05-01T09:21:16.384Z,18.78
2019-05-01T09:23:51.538Z,19.99
2019-05-01T09:26:40.640Z,19.65
2019-05-01T09:29:17.955Z,18.06
2019-05-01T09:31:51.074Z,19.00
2019-05-01T09:34:24.070Z,19.01
2019-05-01T09:36:56.762Z,19.31
2019-05-01T09:39:29.847Z,18.26
2019-05-01T09:42:02.955Z,17.70
2019-05-01T09:44:35.464Z,18.88
2019-05-01T09:47:08.765Z,18.33
2019-05-01T09:49:41.770Z,19.05
2019-05-01T09:52:18.985Z,18.82
2019-05-01T09:54:55.236Z,19.05
2019-05-01T09:57:29.264Z,18.46
2019-05-01T10:00:02.175Z,18.69
2019-05-01T10:02:37.592Z,18.85
2019-05-01T10:05:10.688Z,19.66
2019-05-01T10:07:43.360Z,18.65
2019-05-01T10:10:16.540Z,18.91
2019-05-01T10:12:49.331Z,17.62
2019-05-01T10:15:21.950Z,17.49
2019-05-01T10:17:54.910Z,17.06
2019-05-01T10:20:27.724Z,17.00
2019-05-01T10:23:00.284Z,16.48
2019-05-01T10:25:33.149Z,16.39
2019-05-01T10:28:17.392Z,18.40
2019-05-01T10:30:50.686Z,17.10
2019-05-01T10:33:29.009Z,15.89
2019-05-01T10:36:17.778Z,17.19
2019-05-01T10:38:45.147Z,17.48
2019-05-01T10:41:18.654Z,17.52
2019-05-01T10:43:51.188Z,17.29
2019-05-01T10:46:25.390Z,18.40
2019-05-01T10:48:57.890Z,18.61
2019-05-01T10:51:30.520Z,18.68
2019-05-01T10:54:03.232Z,17.83
2019-05-01T10:56:35.990Z,19.47
2019-05-01T10:59:08.825Z,20.50
2019-05-01T11:01:45.955Z,18.83
2019-05-01T11:04:19.535Z,20.18
2019-05-01T11:06:52.678Z,21.42
2019-05-01T11:09:25.550Z,21.33
2019-05-01T11:11:58.345Z,21.70
2019-05-01T11:14:30.955Z,21.08
2019-05-01T11:17:03.659Z,21.45
2019-05-01T11:19:36.430Z,23.34
2019-05-01T11:22:09.261Z,24.23
2019-05-01T11:24:41.935Z,25.51
2019-05-01T11:27:14.716Z,26.76
2019-05-01T11:29:47.300Z,25.12
2019-05-01T11:32:27.556Z,25.54
2019-05-01T11:35:01.176Z,25.61
2019-05-01T11:37:37.069Z,26.53
2019-05-01T11:40:28.325Z,26.62
2019-05-01T11:43:02.688Z,26.59
2019-05-01T11:45:36.735Z,26.51
2019-05-01T11:48:09.425Z,26.09
2019-05-01T11:50:42.010Z,26.65
2019-05-01T11:53:14.705Z,27.54
2019-05-01T11:55:47.565Z,28.53
2019-05-01T11:58:20.450Z,28.24
2019-05-01T12:00:54.720Z,29.72
2019-05-01T12:03:27.675Z,30.33
2019-05-01T12:06:00.613Z,30.77
2019-05-01T12:08:33.347Z,30.71
2019-05-01T12:11:06.991Z,31.33
2019-05-01T12:13:43.906Z,31.26
2019-05-01T12:16:15.605Z,31.80
2019-05-01T12:18:48.363Z,31.56
2019-05-01T12:21:20.960Z,31.54
2019-05-01T12:23:53.745Z,31.48
2019-05-01T12:26:26.470Z,31.54
2019-05-01T12:28:59.155Z,30.70
2019-05-01T12:31:31.881Z,30.23
2019-05-01T12:34:04.850Z,30.78
2019-05-01T12:36:38.340Z,30.81
2019-05-01T12:39:15.830Z,30.68
2019-05-01T12:41:50.810Z,30.14
2019-05-01T12:44:23.595Z,29.93
2019-05-01T12:47:07.910Z,30.42
2019-05-01T12:49:41.674Z,30.68
2019-05-01T12:52:31.940Z,30.81
2019-05-01T12:55:07.985Z,30.80
2019-05-01T12:57:40.795Z,31.71
2019-05-01T13:00:15.513Z,32.06
2019-05-01T13:02:48.685Z,32.42
2019-05-01T13:05:24.719Z,31.35
2019-05-01T13:07:57.489Z,30.64
2019-05-01T13:10:30.511Z,31.27
2019-05-01T13:13:03.256Z,31.57
2019-05-01T13:15:36.020Z,32.58
2019-05-01T13:18:08.605Z,31.18
2019-05-01T13:20:41.396Z,31.41
2019-05-01T13:23:14.126Z,31.62
2019-05-01T13:25:47.165Z,31.98
2019-05-01T13:28:37.605Z,32.11
2019-05-01T13:31:27.495Z,33.10
2019-05-01T13:34:00.573Z,33.25
2019-05-01T13:36:33.276Z,33.43
2019-05-01T13:39:10.090Z,33.97
2019-05-01T13:41:42.939Z,35.51
2019-05-01T13:44:15.750Z,35.18
2019-05-01T13:46:48.346Z,35.81
2019-05-01T13:49:21.247Z,36.91
2019-05-01T13:51:54.131Z,37.49
2019-05-01T13:54:27.135Z,38.35
2019-05-01T13:56:59.899Z,38.63
2019-05-01T13:59:32.905Z,41.94
2019-05-01T14:02:06.096Z,49.19
2019-05-01T14:04:39.145Z,56.06
2019-05-01T14:07:16.638Z,60.17
2019-05-01T14:09:47.299Z,64.90
2019-05-01T14:12:20.872Z,62.88
2019-05-01T14:14:53.610Z,63.14
2019-05-01T14:17:26.536Z,65.00
2019-05-01T14:20:05.396Z,65.51
2019-05-01T14:22:42.510Z,63.98
2019-05-01T14:25:15.530Z,62.44
2019-05-01T14:27:48.240Z,61.91
2019-05-01T14:30:21.015Z,62.59
2019-05-01T14:32:53.890Z,63.49
2019-05-01T14:35:26.849Z,65.94
2019-05-01T14:38:01.436Z,62.93
2019-05-01T14:40:34.256Z,61.77
2019-05-01T14:43:07.505Z,61.04
2019-05-01T14:45:40.380Z,60.62
2019-05-01T14:48:13.130Z,60.33
2019-05-01T14:50:45.798Z,59.70
2019-05-01T14:53:18.296Z,58.56
2019-05-01T14:55:51.236Z,59.10
2019-05-01T14:58:24.229Z,59.86
2019-05-01T15:00:57.200Z,58.92
2019-05-01T15:03:30.170Z,58.65
2019-05-01T15:06:03.303Z,57.41
2019-05-01T15:08:35.900Z,57.34
2019-05-01T15:11:08.705Z,56.13
2019-05-01T15:13:43.015Z,56.75
2019-05-01T15:16:33.405Z,55.05
2019-05-01T15:19:13.769Z,55.72
2019-05-01T15:21:46.565Z,56.13
2019-05-01T15:24:19.325Z,55.25
2019-05-01T15:26:51.935Z,56.09
2019-05-01T15:29:24.325Z,53.85
2019-05-01T15:31:57.450Z,55.51
2019-05-01T15:34:30.145Z,53.44
2019-05-01T15:37:03.033Z,53.48
2019-05-01T15:39:37.430Z,53.02
2019-05-01T15:42:22.304Z,52.65
2019-05-01T15:44:55.350Z,53.02
2019-05-01T15:47:28.401Z,51.61
2019-05-01T15:50:01.499Z,52.45
2019-05-01T15:52:34.525Z,52.65
2019-05-01T15:55:08.950Z,51.53
2019-05-01T15:57:41.930Z,51.45
2019-05-01T16:00:18.145Z,51.52
2019-05-01T16:02:51.005Z,50.37
2019-05-01T16:05:23.935Z,51.10
2019-05-01T16:08:08.948Z,48.54
2019-05-01T16:10:32.713Z,50.33
2019-05-01T16:13:06.140Z,48.55
2019-05-01T16:15:38.775Z,48.96
2019-05-01T16:18:11.970Z,47.13
2019-05-01T16:20:44.750Z,46.12
2019-05-01T16:23:17.650Z,46.32
2019-05-01T16:25:50.240Z,46.04
2019-05-01T16:28:23.345Z,45.71
2019-05-01T16:30:56.220Z,45.35
2019-05-01T16:33:28.930Z,43.32
2019-05-01T16:36:01.705Z,45.25
2019-05-01T16:38:52.244Z,44.70
2019-05-01T16:41:25.925Z,45.04
2019-05-01T16:43:58.619Z,46.32
2019-05-01T16:46:31.215Z,44.29
2019-05-01T16:49:04.176Z,45.62
2019-05-01T16:51:37.401Z,44.26
2019-05-01T16:54:10.787Z,44.12
2019-05-01T16:56:43.626Z,45.47
2019-05-01T16:59:16.434Z,45.69
2019-05-01T17:01:53.190Z,45.86
2019-05-01T17:04:36.885Z,45.31
2019-05-01T17:07:27.855Z,44.45
2019-05-01T17:10:01.738Z,45.82
2019-05-01T17:12:36.265Z,46.54
2019-05-01T17:15:09.808Z,46.42
2019-05-01T17:17:42.566Z,47.17
2019-05-01T17:20:15.755Z,47.44
2019-05-01T17:22:50.730Z,47.71
2019-05-01T17:25:24.190Z,47.79
2019-05-01T17:27:56.990Z,48.95
2019-05-01T17:30:49.052Z,48.98
2019-05-01T17:33:22.105Z,48.79
2019-05-01T17:35:54.960Z,49.43
2019-05-01T17:38:27.596Z,49.29
2019-05-01T17:41:00.480Z,49.12
2019-05-01T17:43:33.083Z,50.27
2019-05-01T17:46:10.806Z,49.75
2019-05-01T17:48:41.595Z,50.73
2019-05-01T17:51:14.280Z,51.18
2019-05-01T17:53:46.950Z,50.93
2019-05-01T17:56:27.695Z,51.48
2019-05-01T17:58:54.467Z,52.05
2019-05-01T18:01:35.159Z,52.37
2019-05-01T18:04:21.687Z,52.90
2019-05-01T18:06:54.670Z,52.95
2019-05-01T18:09:27.465Z,53.01
2019-05-01T18:12:00.355Z,54.26
2019-05-01T18:14:33.045Z,52.96
2019-05-01T18:17:06.208Z,53.27
2019-05-01T18:19:38.775Z,54.75
2019-05-01T18:22:32.061Z,54.49
2019-05-01T18:25:28.126Z,54.87
2019-05-01T18:28:03.585Z,55.69
2019-05-01T18:30:40.965Z,56.33
2019-05-01T18:33:14.854Z,56.38
2019-05-01T18:35:49.215Z,56.58
2019-05-01T18:38:42.981Z,56.34
2019-05-01T18:41:30.326Z,56.52
2019-05-01T18:44:05.390Z,56.45
2019-05-01T18:46:37.983Z,57.19
2019-05-01T18:49:10.680Z,55.75
2019-05-01T18:51:43.330Z,56.60
2019-05-01T18:54:16.830Z,56.36
2019-05-01T18:56:49.846Z,57.75
2019-05-01T18:59:22.870Z,57.47
2019-05-01T19:01:55.926Z,57.13
2019-05-01T19:04:28.760Z,58.50
2019-05-01T19:07:02.001Z,57.94
2019-05-01T19:09:36.823Z,56.98
2019-05-01T19:12:10.263Z,56.20
2019-05-01T19:14:43.010Z,56.31
2019-05-01T19:17:15.693Z,56.26
2019-05-01T19:19:48.580Z,55.28
2019-05-01T19:22:21.515Z,54.71
2019-05-01T19:24:57.002Z,55.18
2019-05-01T19:27:29.130Z,55.55
2019-05-01T19:30:02.132Z,54.87
2019-05-01T19:32:37.881Z,54.64
2019-05-01T19:35:11.682Z,55.59
2019-05-01T19:37:44.361Z,55.71
2019-05-01T19:40:17.462Z,55.53
2019-05-01T19:42:53.670Z,55.44
2019-05-01T19:45:25.734Z,55.81
2019-05-01T19:47:58.866Z,57.33
2019-05-01T19:50:31.626Z,56.79
2019-05-01T19:53:04.636Z,57.90
2019-05-01T19:55:39.867Z,57.89
2019-05-01T19:58:12.440Z,57.84
2019-05-01T20:00:54.500Z,58.24
2019-05-01T20:03:30.526Z,58.95
2019-05-01T20:06:05.289Z,59.08
2019-05-01T20:08:36.355Z,59.37
2019-05-01T20:11:09.957Z,59.55
2019-05-01T20:13:43.345Z,59.96
2019-05-01T20:16:16.655Z,59.91
2019-05-01T20:18:49.480Z,60.25
2019-05-01T20:21:22.225Z,61.11
2019-05-01T20:23:55.106Z,60.90
2019-05-01T20:26:32.073Z,61.65
2019-05-01T20:29:02.127Z,61.75
2019-05-01T20:31:34.870Z,61.62
2019-05-01T20:34:12.103Z,62.06
2019-05-01T20:36:43.545Z,61.68
2019-05-01T20:39:16.575Z,62.03
2019-05-01T20:41:49.830Z,62.44
2019-05-01T20:44:23.924Z,62.73
2019-05-01T20:46:58.444Z,62.51
2019-05-01T20:49:31.590Z,62.97
2019-05-01T20:52:04.600Z,63.14
2019-05-01T20:54:37.506Z,63.08
2019-05-01T20:57:20.947Z,62.91
2019-05-01T20:59:52.167Z,63.40
2019-05-01T21:02:26.005Z,63.56
2019-05-01T21:05:16.790Z,64.62
2019-05-01T21:08:04.485Z,64.14
2019-05-01T21:10:54.990Z,64.51
2019-05-01T21:13:27.771Z,64.92
2019-05-01T21:16:01.781Z,65.37
2019-05-01T21:18:35.065Z,65.50
2019-05-01T21:21:07.839Z,65.48
2019-05-01T21:23:40.459Z,65.93
2019-05-01T21:26:13.838Z,65.85
2019-05-01T21:28:46.622Z,65.97
2019-05-01T21:31:19.476Z,66.26
2019-05-01T21:33:53.633Z,66.35
2019-05-01T21:36:26.243Z,66.59
2019-05-01T21:38:58.965Z,66.68
2019-05-01T21:41:32.860Z,66.75
2019-05-01T21:44:06.817Z,67.30
2019-05-01T21:46:39.626Z,67.80
2019-05-01T21:49:12.935Z,68.00
2019-05-01T21:51:46.325Z,68.31
2019-05-01T21:54:20.701Z,68.35
2019-05-01T21:56:53.399Z,69.00
2019-05-01T21:59:26.036Z,68.77
2019-05-01T22:01:58.672Z,69.09
2019-05-01T22:04:31.897Z,69.19
2019-05-01T22:07:07.115Z,69.35
2019-05-01T22:09:45.599Z,69.63
2019-05-01T22:12:15.735Z,69.91
2019-05-01T22:14:49.891Z,70.17
2019-05-01T22:17:27.273Z,70.10
2019-05-01T22:19:58.960Z,70.03
2019-05-01T22:22:48.520Z,70.18
2019-05-01T22:25:22.761Z,70.55
2019-05-01T22:28:00.117Z,70.42
2019-05-01T22:30:37.320Z,70.41
2019-05-01T22:33:10.131Z,70.44
2019-05-01T22:35:45.029Z,70.81
2019-05-01T22:38:18.055Z,71.20
2019-05-01T22:41:04.689Z,70.98
2019-05-01T22:43:26.749Z,70.35
2019-05-01T22:46:01.527Z,70.65
2019-05-01T22:48:34.218Z,71.19
2019-05-01T22:51:08.610Z,71.56
2019-05-01T22:53:41.054Z,71.34
2019-05-01T22:56:13.614Z,71.71
2019-05-01T22:58:46.320Z,71.82
2019-05-01T23:01:19.770Z,72.24
2019-05-01T23:03:54.070Z,72.18
2019-05-01T23:06:26.800Z,72.83
2019-05-01T23:08:59.311Z,72.75
2019-05-01T23:11:33.710Z,73.84
2019-05-01T23:14:07.636Z,73.44
2019-05-01T23:16:41.900Z,74.14
2019-05-01T23:19:14.660Z,73.97
2019-05-01T23:21:50.844Z,74.45
2019-05-01T23:24:21.711Z,75.11
2019-05-01T23:26:54.365Z,75.64
2019-05-01T23:29:27.035Z,75.91
2019-05-01T23:31:59.810Z,75.54
2019-05-01T23:34:32.550Z,75.55
2019-05-01T23:37:05.530Z,75.52
2019-05-01T23:39:40.395Z,75.89
2019-05-01T23:42:12.744Z,75.42
2019-05-01T23:44:46.575Z,75.13
2019-05-01T23:47:19.070Z,74.72
2019-05-01T23:49:52.597Z,74.58
2019-05-01T23:52:25.969Z,74.80
2019-05-01T23:54:58.760Z,74.52
2019-05-01T23:57:31.535Z,74.55
